createdAt,value
2019-01-08T00:04:09.730Z,6.50
2019-01-08T00:09:09.381Z,6.57
2019-01-08T00:14:08.927Z,4.43
2019-01-08T00:19:08.651Z,4.90
2019-01-08T00:24:08.197Z,5.27
2019-01-08T00:29:07.750Z,5.70
2019-01-08T00:34:07.784Z,5.30
2019-01-08T00:39:07.749Z,5.37
2019-01-08T00:44:07.290Z,4.20
2019-01-08T00:49:06.847Z,4.33
2019-01-08T00:54:06.486Z,4.73
2019-01-08T00:59:06.039Z,4.27
2019-01-08T01:04:05.620Z,3.40
2019-01-08T01:09:07.044Z,3.87
2019-01-08T01:14:06.619Z,4.10
2019-01-08T01:19:06.141Z,3.70
2019-01-08T01:24:05.670Z,3.67
2019-01-08T01:29:05.242Z,3.40
2019-01-08T01:34:04.789Z,3.37
2019-01-08T01:39:05.671Z,3.73
2019-01-08T01:44:05.294Z,3.40
2019-01-08T01:49:04.874Z,3.30
2019-01-08T01:54:04.419Z,3.83
2019-01-08T01:59:08.340Z,3.57
2019-01-08T02:04:05.207Z,3.07
2019-01-08T02:09:06.143Z,3.00
2019-01-08T02:14:05.785Z,3.50
2019-01-08T02:19:05.350Z,3.77
2019-01-08T02:24:04.892Z,3.17
2019-01-08T02:29:04.535Z,3.53
2019-01-08T02:34:04.070Z,3.60
2019-01-08T02:39:05.335Z,3.27
2019-01-08T02:44:05.202Z,3.60
2019-01-08T02:49:04.871Z,3.60
2019-01-08T02:54:04.436Z,4.53
2019-01-08T02:59:04.012Z,3.03
2019-01-08T03:04:03.550Z,3.63
2019-01-08T03:09:03.654Z,4.17
2019-01-08T03:14:04.113Z,3.33
2019-01-08T03:19:03.722Z,3.53
2019-01-08T03:24:03.271Z,3.30
2019-01-08T03:29:02.831Z,2.20
2019-01-08T03:34:02.424Z,3.00
2019-01-08T03:39:01.966Z,2.07
2019-01-08T03:44:03.074Z,3.13
2019-01-08T03:49:02.683Z,2.60
2019-01-08T03:54:02.255Z,2.43
2019-01-08T03:59:01.800Z,2.43
2019-01-08T04:04:01.351Z,2.87
2019-01-08T04:09:00.891Z,1.70
2019-01-08T04:14:01.078Z,2.37
2019-01-08T04:19:00.615Z,2.50
2019-01-08T04:24:00.182Z,2.20
2019-01-08T04:28:59.721Z,2.20
2019-01-08T04:33:59.330Z,3.03
2019-01-08T04:38:58.887Z,2.30
2019-01-08T04:43:58.436Z,1.90
2019-01-08T04:48:57.959Z,2.23
2019-01-08T04:53:57.499Z,2.17
2019-01-08T04:58:57.058Z,1.70
2019-01-08T05:03:56.617Z,2.67
2019-01-08T05:08:56.164Z,1.60
2019-01-08T05:13:55.713Z,1.40
2019-01-08T05:18:55.287Z,1.90
2019-01-08T05:23:54.817Z,2.50
2019-01-08T05:28:54.359Z,1.30
2019-01-08T05:33:54.021Z,2.20
2019-01-08T05:38:53.566Z,1.63
2019-01-08T05:43:53.187Z,1.80
2019-01-08T05:48:52.715Z,2.87
2019-01-08T05:53:52.271Z,2.20
2019-01-08T05:58:51.834Z,2.63
2019-01-08T06:03:51.761Z,2.40
2019-01-08T06:08:53.135Z,2.57
2019-01-08T06:13:52.671Z,1.60
2019-01-08T06:18:52.208Z,1.80
2019-01-08T06:23:51.759Z,1.90
2019-01-08T06:28:51.357Z,1.87
2019-01-08T06:33:51.356Z,1.73
2019-01-08T06:38:50.991Z,1.47
2019-01-08T06:43:50.578Z,1.90
2019-01-08T06:48:51.026Z,1.37
2019-01-08T06:53:51.516Z,1.47
2019-01-08T06:58:52.133Z,2.60
2019-01-08T07:04:04.139Z,2.10
2019-01-08T07:09:06.321Z,2.00
2019-01-08T07:14:08.528Z,1.30
2019-01-08T07:19:08.514Z,2.00
2019-01-08T07:24:08.955Z,1.27
2019-01-08T07:29:09.327Z,1.70
2019-01-08T07:34:09.279Z,1.40
2019-01-08T07:39:10.155Z,1.33
2019-01-08T07:44:29.118Z,1.63
2019-01-08T07:49:28.642Z,1.60
2019-01-08T07:54:28.222Z,2.67
2019-01-08T07:59:27.796Z,2.13
2019-01-08T08:04:27.334Z,1.17
2019-01-08T08:09:26.883Z,1.57
2019-01-08T08:14:26.413Z,1.20
2019-01-08T08:19:25.950Z,1.70
2019-01-08T08:24:25.494Z,1.30
2019-01-08T08:29:25.046Z,1.30
2019-01-08T08:34:24.689Z,1.30
2019-01-08T08:39:24.230Z,1.67
2019-01-08T08:44:23.792Z,1.60
2019-01-08T08:49:23.339Z,1.33
2019-01-08T08:54:22.886Z,1.70
2019-01-08T08:59:22.500Z,1.17
2019-01-08T09:04:22.037Z,1.30
2019-01-08T09:09:22.534Z,1.37
2019-01-08T09:14:23.011Z,1.40
2019-01-08T09:19:22.601Z,2.37
2019-01-08T09:24:22.963Z,0.90
2019-01-08T09:29:23.143Z,1.33
2019-01-08T09:34:23.879Z,1.27
2019-01-08T09:39:24.840Z,1.80
2019-01-08T09:44:25.364Z,1.33
2019-01-08T09:49:26.122Z,1.40
2019-01-08T09:54:26.718Z,1.90
2019-01-08T09:59:27.301Z,1.30
2019-01-08T10:04:30.217Z,1.60
2019-01-08T10:09:30.735Z,1.30
2019-01-08T10:14:31.516Z,1.10
2019-01-08T10:19:31.920Z,1.07
2019-01-08T10:24:32.277Z,1.07
2019-01-08T10:29:33.027Z,1.20
2019-01-08T10:34:32.696Z,1.30
2019-01-08T10:39:32.687Z,1.20
2019-01-08T10:44:32.397Z,1.10
2019-01-08T10:49:31.933Z,1.00
2019-01-08T10:54:31.486Z,0.90
2019-01-08T10:59:31.047Z,1.90
2019-01-08T11:04:30.599Z,1.20
2019-01-08T11:09:30.146Z,1.67
2019-01-08T11:14:29.679Z,0.87
2019-01-08T11:19:29.332Z,0.73
2019-01-08T11:24:28.863Z,1.10
2019-01-08T11:29:29.295Z,1.20
2019-01-08T11:34:28.842Z,0.70
2019-01-08T11:39:28.390Z,0.77
2019-01-08T11:44:28.188Z,1.00
2019-01-08T11:49:27.802Z,0.57
2019-01-08T11:54:27.428Z,0.70
2019-01-08T11:59:27.076Z,1.00
2019-01-08T12:04:26.609Z,0.73
2019-01-08T12:09:26.165Z,1.00
2019-01-08T12:14:25.730Z,0.80
2019-01-08T12:19:25.280Z,1.17
2019-01-08T12:24:24.879Z,0.80
2019-01-08T12:29:24.432Z,0.77
2019-01-08T12:34:23.970Z,1.10
2019-01-08T12:39:23.535Z,0.90
2019-01-08T12:44:23.102Z,1.10
2019-01-08T12:49:22.738Z,1.27
2019-01-08T12:54:22.680Z,0.93
2019-01-08T12:59:22.504Z,1.00
2019-01-08T13:04:22.254Z,1.13
2019-01-08T13:09:21.798Z,0.67
2019-01-08T13:14:21.622Z,0.90
2019-01-08T13:19:21.351Z,1.00
2019-01-08T13:24:21.678Z,1.10
2019-01-08T13:29:21.218Z,1.07
2019-01-08T13:34:20.998Z,1.10
2019-01-08T13:39:20.550Z,0.83
2019-01-08T13:44:20.099Z,1.07
2019-01-08T13:49:19.667Z,0.90
2019-01-08T13:54:19.234Z,0.97
2019-01-08T13:59:18.826Z,0.70
2019-01-08T14:04:19.501Z,0.90
2019-01-08T14:09:19.110Z,1.00
2019-01-08T14:14:18.757Z,0.90
2019-01-08T14:19:18.436Z,0.60
2019-01-08T14:24:17.961Z,0.70
2019-01-08T14:29:17.539Z,0.70
2019-01-08T14:34:17.153Z,1.00
2019-01-08T14:39:16.746Z,1.10
2019-01-08T14:44:16.306Z,0.47
2019-01-08T14:49:15.858Z,1.13
2019-01-08T14:54:15.449Z,1.30
2019-01-08T14:59:15.247Z,1.33
2019-01-08T15:04:14.843Z,0.90
2019-01-08T15:09:14.387Z,0.90
2019-01-08T15:14:14.023Z,0.90
2019-01-08T15:19:13.560Z,1.30
2019-01-08T15:24:13.182Z,1.13
2019-01-08T15:29:12.747Z,1.63
2019-01-08T15:34:12.374Z,1.60
2019-01-08T15:39:11.926Z,1.70
2019-01-08T15:44:15.473Z,1.77
2019-01-08T15:49:12.728Z,1.90
2019-01-08T15:54:12.270Z,1.50
2019-01-08T15:59:11.818Z,1.40
2019-01-08T16:04:11.394Z,2.53
2019-01-08T16:09:10.954Z,2.67
2019-01-08T16:14:10.547Z,2.27
2019-01-08T16:19:10.107Z,2.10
2019-01-08T16:24:09.714Z,2.00
2019-01-08T16:29:09.265Z,1.07
2019-01-08T16:34:08.839Z,0.80
2019-01-08T16:39:08.819Z,1.27
2019-01-08T16:44:08.426Z,1.50
2019-01-08T16:49:08.005Z,1.93
2019-01-08T16:54:07.605Z,2.00
2019-01-08T16:59:07.179Z,2.17
2019-01-08T17:04:06.798Z,1.70
2019-01-08T17:09:06.898Z,1.77
2019-01-08T17:14:06.467Z,1.07
2019-01-08T17:19:06.020Z,1.80
2019-01-08T17:24:05.671Z,1.80
2019-01-08T17:29:06.555Z,2.47
2019-01-08T17:34:06.105Z,1.50
2019-01-08T17:39:08.671Z,1.30
2019-01-08T17:44:08.641Z,1.27
2019-01-08T17:49:08.277Z,1.40
2019-01-08T17:54:07.859Z,1.43
2019-01-08T17:59:11.543Z,1.40
2019-01-08T18:04:11.156Z,1.17
2019-01-08T18:09:10.891Z,1.37
2019-01-08T18:14:10.519Z,1.00
2019-01-08T18:19:10.294Z,1.00
2019-01-08T18:24:09.959Z,0.70
2019-01-08T18:29:09.786Z,1.10
2019-01-08T18:34:09.438Z,0.80
2019-01-08T18:39:09.083Z,1.00
2019-01-08T18:44:08.802Z,0.70
2019-01-08T18:49:08.361Z,1.47
2019-01-08T18:54:08.967Z,0.70
2019-01-08T18:59:08.551Z,0.80
2019-01-08T19:04:09.197Z,1.00
2019-01-08T19:09:35.974Z,0.97
2019-01-08T19:14:38.271Z,1.60
2019-01-08T19:19:37.812Z,0.90
2019-01-08T19:24:37.416Z,1.00
2019-01-08T19:29:36.949Z,0.70
2019-01-08T19:34:36.491Z,0.70
2019-01-08T19:39:36.043Z,0.90
2019-01-08T19:44:35.600Z,0.70
2019-01-08T19:49:35.188Z,1.30
2019-01-08T19:54:34.911Z,1.03
2019-01-08T19:59:34.451Z,1.30
2019-01-08T20:04:34.181Z,0.93
2019-01-08T20:09:33.726Z,0.67
2019-01-08T20:14:34.363Z,0.90
2019-01-08T20:19:33.910Z,0.70
2019-01-08T20:24:33.458Z,1.00
2019-01-08T20:29:32.999Z,0.63
2019-01-08T20:34:33.631Z,0.67
2019-01-08T20:39:33.167Z,2.50
2019-01-08T20:44:32.758Z,1.10
2019-01-08T20:49:32.306Z,0.90
2019-01-08T20:54:31.843Z,0.80
2019-01-08T20:59:31.403Z,0.90
2019-01-08T21:04:35.567Z,1.17
2019-01-08T21:09:32.250Z,0.70
2019-01-08T21:14:32.004Z,0.97
2019-01-08T21:19:31.669Z,0.80
2019-01-08T21:24:31.410Z,0.90
2019-01-08T21:29:31.002Z,1.10
2019-01-08T21:34:30.634Z,1.37
2019-01-08T21:39:30.425Z,0.97
2019-01-08T21:44:30.048Z,1.30
2019-01-08T21:49:29.769Z,0.87
2019-01-08T21:54:29.473Z,0.83
2019-01-08T21:59:29.265Z,0.97
2019-01-08T22:04:29.254Z,1.00
2019-01-08T22:09:29.580Z,0.90
2019-01-08T22:14:29.389Z,1.23
2019-01-08T22:19:29.093Z,1.20
2019-01-08T22:24:28.634Z,1.40
2019-01-08T22:29:28.185Z,1.00
2019-01-08T22:34:28.198Z,0.93
2019-01-08T22:39:27.750Z,0.70
2019-01-08T22:44:27.421Z,0.93
2019-01-08T22:49:26.994Z,0.70
2019-01-08T22:54:26.907Z,0.90
2019-01-08T22:59:26.525Z,0.70
2019-01-08T23:04:26.316Z,0.83
2019-01-08T23:09:25.862Z,0.93
2019-01-08T23:14:25.460Z,1.10
2019-01-08T23:19:25.147Z,0.70
2019-01-08T23:24:24.757Z,0.80
2019-01-08T23:29:24.291Z,1.47
2019-01-08T23:34:23.834Z,0.80
2019-01-08T23:39:23.396Z,0.80
2019-01-08T23:44:23.010Z,1.00
2019-01-08T23:49:22.551Z,0.50
2019-01-08T23:54:23.828Z,0.60
2019-01-08T23:59:23.366Z,0.60
